EHAK

A12-cpp Sea

A12-cpp Sea, The Netherlands
METAR EHAK 181325Z AUTO 23012KT 180V270 9999 FEW018/// SCT028/// 06/01 Q1016 W///H///
Observed Flight Rules
Jan-18 @ 13:25 UTC (32 minutes ago) Visual Flight Rules
Wind Visibility Clouds
230° at 12 knots 10,000+ meters
  • Few at 1,800' AGL
  • Scattered at 2,800' AGL
Temperatures Readings
Current 6°C / 43°F
Dewpoint 1°C / 34°F
Humidity 71%
Altimeter 30" Hg
Pressure 1015.92 hPa
Elevation 50
METAR EHAK 181325Z AUTO 23012KT 180V270 9999 FEW018/// SCT028/// 06/01 Q1016 W///H///
Observed Flight Rules
Jan-18 @ 13:25 UTC
(32 minutes ago)
VFR
Wind Visibility
230° at 12 knots 10,000+ meters
Clouds
  • Few at 1,800' AGL
  • Scattered at 2,800' AGL
Temperature Dewpoint
6°C / 43°F 1°C / 34°F
Humidity Altimeter Pressure
71% 30" Hg 1015.92 hPa